sensor_id;sensor_type;location;lat;lon;timestamp;P1;durP1;ratioP1;P2;durP2;ratioP2
76119;SDS011;64852;48.092;-1.640;2022-11-04T00:01:39;19.27;;;18.25;;
76119;SDS011;64852;48.092;-1.640;2022-11-04T00:04:06;20.38;;;19.20;;
76119;SDS011;64852;48.092;-1.640;2022-11-04T00:08:58;19.70;;;18.60;;
76119;SDS011;64852;48.092;-1.640;2022-11-04T00:11:25;20.52;;;19.38;;
76119;SDS011;64852;48.092;-1.640;2022-11-04T00:14:10;20.80;;;19.65;;
76119;SDS011;64852;48.092;-1.640;2022-11-04T00:16:37;20.05;;;18.92;;
76119;SDS011;64852;48.092;-1.640;2022-11-04T00:19:22;21.50;;;20.30;;
76119;SDS011;64852;48.092;-1.640;2022-11-04T00:21:48;19.65;;;18.52;;
76119;SDS011;64852;48.092;-1.640;2022-11-04T00:24:32;20.48;;;19.38;;
76119;SDS011;64852;48.092;-1.640;2022-11-04T00:27:07;22.83;;;20.92;;
76119;SDS011;64852;48.092;-1.640;2022-11-04T00:29:52;20.50;;;19.40;;
76119;SDS011;64852;48.092;-1.640;2022-11-04T00:32:18;20.63;;;19.53;;
76119;SDS011;64852;48.092;-1.640;2022-11-04T00:35:02;19.40;;;18.30;;
76119;SDS011;64852;48.092;-1.640;2022-11-04T00:39:54;21.52;;;20.08;;
76119;SDS011;64852;48.092;-1.640;2022-11-04T00:42:20;22.00;;;20.70;;
76119;SDS011;64852;48.092;-1.640;2022-11-04T00:44:45;20.50;;;19.40;;
76119;SDS011;64852;48.092;-1.640;2022-11-04T00:47:11;20.83;;;19.70;;
76119;SDS011;64852;48.092;-1.640;2022-11-04T00:49:37;20.77;;;19.67;;
76119;SDS011;64852;48.092;-1.640;2022-11-04T00:52:02;21.63;;;20.43;;
76119;SDS011;64852;48.092;-1.640;2022-11-04T00:54:28;22.20;;;19.95;;
76119;SDS011;64852;48.092;-1.640;2022-11-04T00:56:54;19.80;;;18.70;;
76119;SDS011;64852;48.092;-1.640;2022-11-04T00:59:19;20.43;;;19.33;;
76119;SDS011;64852;48.092;-1.640;2022-11-04T01:01:45;19.43;;;18.33;;
76119;SDS011;64852;48.092;-1.640;2022-11-04T01:04:10;19.97;;;18.77;;
76119;SDS011;64852;48.092;-1.640;2022-11-04T01:06:36;20.90;;;19.53;;
76119;SDS011;64852;48.092;-1.640;2022-11-04T01:09:04;20.30;;;19.10;;
76119;SDS011;64852;48.092;-1.640;2022-11-04T01:11:34;19.83;;;18.73;;
76119;SDS011;64852;48.092;-1.640;2022-11-04T01:14:00;20.57;;;19.27;;
76119;SDS011;64852;48.092;-1.640;2022-11-04T01:16:26;19.57;;;18.47;;
76119;SDS011;64852;48.092;-1.640;2022-11-04T01:18:53;20.17;;;18.90;;
76119;SDS011;64852;48.092;-1.640;2022-11-04T01:21:18;20.55;;;19.33;;
76119;SDS011;64852;48.092;-1.640;2022-11-04T01:23:44;19.30;;;18.20;;
76119;SDS011;64852;48.092;-1.640;2022-11-04T01:26:15;19.02;;;17.95;;
76119;SDS011;64852;48.092;-1.640;2022-11-04T01:28:45;19.60;;;18.38;;
76119;SDS011;64852;48.092;-1.640;2022-11-04T01:31:12;19.55;;;18.35;;
76119;SDS011;64852;48.092;-1.640;2022-11-04T01:33:39;18.52;;;17.52;;
76119;SDS011;64852;48.092;-1.640;2022-11-04T01:36:06;19.50;;;18.40;;
76119;SDS011;64852;48.092;-1.640;2022-11-04T01:38:32;17.80;;;16.80;;
76119;SDS011;64852;48.092;-1.640;2022-11-04T01:40:58;17.95;;;16.95;;
76119;SDS011;64852;48.092;-1.640;2022-11-04T01:43:41;16.40;;;15.50;;
76119;SDS011;64852;48.092;-1.640;2022-11-04T01:46:07;19.38;;;18.20;;
76119;SDS011;64852;48.092;-1.640;2022-11-04T01:48:37;15.80;;;15.00;;
76119;SDS011;64852;48.092;-1.640;2022-11-04T01:51:03;14.93;;;13.20;;
76119;SDS011;64852;48.092;-1.640;2022-11-04T01:53:31;14.52;;;13.73;;
76119;SDS011;64852;48.092;-1.640;2022-11-04T01:56:03;15.15;;;14.27;;
76119;SDS011;64852;48.092;-1.640;2022-11-04T01:58:37;14.00;;;13.30;;
76119;SDS011;64852;48.092;-1.640;2022-11-04T02:01:10;14.15;;;13.15;;
76119;SDS011;64852;48.092;-1.640;2022-11-04T02:06:05;14.82;;;13.65;;
76119;SDS011;64852;48.092;-1.640;2022-11-04T02:10:59;15.30;;;14.30;;
76119;SDS011;64852;48.092;-1.640;2022-11-04T02:13:26;15.00;;;14.05;;
76119;SDS011;64852;48.092;-1.640;2022-11-04T02:24:30;18.27;;;14.45;;
76119;SDS011;64852;48.092;-1.640;2022-11-04T02:49:13;15.30;;;14.50;;
76119;SDS011;64852;48.092;-1.640;2022-11-04T02:51:52;15.32;;;14.52;;
76119;SDS011;64852;48.092;-1.640;2022-11-04T02:54:27;16.45;;;15.05;;
76119;SDS011;64852;48.092;-1.640;2022-11-04T02:56:58;15.88;;;14.88;;
76119;SDS011;64852;48.092;-1.640;2022-11-04T02:59:37;15.00;;;14.20;;
76119;SDS011;64852;48.092;-1.640;2022-11-04T03:02:15;16.05;;;15.15;;
76119;SDS011;64852;48.092;-1.640;2022-11-04T03:04:45;15.07;;;14.27;;
76119;SDS011;64852;48.092;-1.640;2022-11-04T03:07:14;16.13;;;15.10;;
76119;SDS011;64852;48.092;-1.640;2022-11-04T03:09:48;15.00;;;14.20;;
76119;SDS011;64852;48.092;-1.640;2022-11-04T03:12:18;14.63;;;13.82;;
76119;SDS011;64852;48.092;-1.640;2022-11-04T03:14:51;16.15;;;15.25;;
76119;SDS011;64852;48.092;-1.640;2022-11-04T03:17:35;16.00;;;15.10;;
76119;SDS011;64852;48.092;-1.640;2022-11-04T03:20:17;15.73;;;14.27;;
76119;SDS011;64852;48.092;-1.640;2022-11-04T03:22:47;16.23;;;15.32;;
76119;SDS011;64852;48.092;-1.640;2022-11-04T03:25:13;15.52;;;14.73;;
76119;SDS011;64852;48.092;-1.640;2022-11-04T03:30:15;16.48;;;15.25;;
76119;SDS011;64852;48.092;-1.640;2022-11-04T03:35:30;15.85;;;15.00;;
76119;SDS011;64852;48.092;-1.640;2022-11-04T03:37:56;14.93;;;14.13;;
76119;SDS011;64852;48.092;-1.640;2022-11-04T03:40:22;15.45;;;14.65;;
76119;SDS011;64852;48.092;-1.640;2022-11-04T03:42:58;16.13;;;15.23;;
76119;SDS011;64852;48.092;-1.640;2022-11-04T03:45:27;15.70;;;14.85;;
76119;SDS011;64852;48.092;-1.640;2022-11-04T03:47:54;17.35;;;16.02;;
76119;SDS011;64852;48.092;-1.640;2022-11-04T03:52:53;16.35;;;15.45;;
76119;SDS011;64852;48.092;-1.640;2022-11-04T03:55:22;18.33;;;16.58;;
76119;SDS011;64852;48.092;-1.640;2022-11-04T03:58:28;16.85;;;15.95;;
76119;SDS011;64852;48.092;-1.640;2022-11-04T04:01:01;16.63;;;15.73;;
76119;SDS011;64852;48.092;-1.640;2022-11-04T04:03:51;16.10;;;15.20;;
76119;SDS011;64852;48.092;-1.640;2022-11-04T04:06:37;23.80;;;16.98;;
76119;SDS011;64852;48.092;-1.640;2022-11-04T04:09:11;17.70;;;16.52;;
76119;SDS011;64852;48.092;-1.640;2022-11-04T04:11:52;17.73;;;16.67;;
76119;SDS011;64852;48.092;-1.640;2022-11-04T04:14:33;15.90;;;15.10;;
76119;SDS011;64852;48.092;-1.640;2022-11-04T04:20:27;15.85;;;15.05;;
76119;SDS011;64852;48.092;-1.640;2022-11-04T04:22:39;16.48;;;15.57;;
76119;SDS011;64852;48.092;-1.640;2022-11-04T04:25:09;17.15;;;16.25;;
76119;SDS011;64852;48.092;-1.640;2022-11-04T04:27:55;17.08;;;16.08;;
76119;SDS011;64852;48.092;-1.640;2022-11-04T04:30:23;18.77;;;17.58;;
76119;SDS011;64852;48.092;-1.640;2022-11-04T04:32:53;17.92;;;16.95;;
76119;SDS011;64852;48.092;-1.640;2022-11-04T04:35:29;19.33;;;18.05;;
76119;SDS011;64852;48.092;-1.640;2022-11-04T04:38:30;20.20;;;18.83;;
76119;SDS011;64852;48.092;-1.640;2022-11-04T04:41:22;22.50;;;21.20;;
76119;SDS011;64852;48.092;-1.640;2022-11-04T04:44:14;23.60;;;22.25;;
76119;SDS011;64852;48.092;-1.640;2022-11-04T04:47:01;23.92;;;22.58;;
76119;SDS011;64852;48.092;-1.640;2022-11-04T04:49:29;25.52;;;23.83;;
76119;SDS011;64852;48.092;-1.640;2022-11-04T04:51:59;27.98;;;26.27;;
76119;SDS011;64852;48.092;-1.640;2022-11-04T04:54:25;39.08;;;36.47;;
76119;SDS011;64852;48.092;-1.640;2022-11-04T04:56:51;48.53;;;45.13;;
76119;SDS011;64852;48.092;-1.640;2022-11-04T04:59:17;48.73;;;44.53;;
76119;SDS011;64852;48.092;-1.640;2022-11-04T05:01:43;48.17;;;44.53;;
76119;SDS011;64852;48.092;-1.640;2022-11-04T05:04:08;48.87;;;44.43;;
76119;SDS011;64852;48.092;-1.640;2022-11-04T05:06:34;47.70;;;44.10;;
76119;SDS011;64852;48.092;-1.640;2022-11-04T05:08:59;49.23;;;45.53;;
76119;SDS011;64852;48.092;-1.640;2022-11-04T05:11:25;48.73;;;45.17;;
76119;SDS011;64852;48.092;-1.640;2022-11-04T05:13:51;48.53;;;44.87;;
76119;SDS011;64852;48.092;-1.640;2022-11-04T05:16:16;48.13;;;44.43;;
76119;SDS011;64852;48.092;-1.640;2022-11-04T05:18:42;47.70;;;44.03;;
76119;SDS011;64852;48.092;-1.640;2022-11-04T05:21:09;46.37;;;42.30;;
76119;SDS011;64852;48.092;-1.640;2022-11-04T05:23:37;46.60;;;43.00;;
76119;SDS011;64852;48.092;-1.640;2022-11-04T05:26:03;43.53;;;40.30;;
76119;SDS011;64852;48.092;-1.640;2022-11-04T05:28:29;42.33;;;39.15;;
76119;SDS011;64852;48.092;-1.640;2022-11-04T05:30:55;35.70;;;33.10;;
76119;SDS011;64852;48.092;-1.640;2022-11-04T05:33:21;34.90;;;32.38;;
76119;SDS011;64852;48.092;-1.640;2022-11-04T05:35:46;34.67;;;32.17;;
76119;SDS011;64852;48.092;-1.640;2022-11-04T05:38:12;34.00;;;31.50;;
76119;SDS011;64852;48.092;-1.640;2022-11-04T05:40:38;35.77;;;32.97;;
76119;SDS011;64852;48.092;-1.640;2022-11-04T05:43:03;35.17;;;32.67;;
76119;SDS011;64852;48.092;-1.640;2022-11-04T05:45:29;33.93;;;31.53;;
76119;SDS011;64852;48.092;-1.640;2022-11-04T05:48:02;34.35;;;31.83;;
76119;SDS011;64852;48.092;-1.640;2022-11-04T05:50:29;33.20;;;30.75;;
76119;SDS011;64852;48.092;-1.640;2022-11-04T05:52:57;34.05;;;31.45;;
76119;SDS011;64852;48.092;-1.640;2022-11-04T05:55:23;33.17;;;30.67;;
76119;SDS011;64852;48.092;-1.640;2022-11-04T05:57:49;33.55;;;31.02;;
76119;SDS011;64852;48.092;-1.640;2022-11-04T06:00:15;32.40;;;30.10;;
76119;SDS011;64852;48.092;-1.640;2022-11-04T06:02:41;32.75;;;30.35;;
76119;SDS011;64852;48.092;-1.640;2022-11-04T06:05:07;32.03;;;29.52;;
76119;SDS011;64852;48.092;-1.640;2022-11-04T06:07:33;31.85;;;29.65;;
76119;SDS011;64852;48.092;-1.640;2022-11-04T06:09:58;32.83;;;30.52;;
76119;SDS011;64852;48.092;-1.640;2022-11-04T06:12:24;33.10;;;30.60;;
76119;SDS011;64852;48.092;-1.640;2022-11-04T06:14:50;32.85;;;30.42;;
76119;SDS011;64852;48.092;-1.640;2022-11-04T06:17:16;32.08;;;29.58;;
76119;SDS011;64852;48.092;-1.640;2022-11-04T06:19:43;31.90;;;29.60;;
76119;SDS011;64852;48.092;-1.640;2022-11-04T06:22:10;31.25;;;29.00;;
76119;SDS011;64852;48.092;-1.640;2022-11-04T06:24:37;32.58;;;30.27;;
76119;SDS011;64852;48.092;-1.640;2022-11-04T06:27:03;30.93;;;28.73;;
76119;SDS011;64852;48.092;-1.640;2022-11-04T06:29:29;30.58;;;28.38;;
76119;SDS011;64852;48.092;-1.640;2022-11-04T06:31:55;32.45;;;30.05;;
76119;SDS011;64852;48.092;-1.640;2022-11-04T06:34:20;32.33;;;30.03;;
76119;SDS011;64852;48.092;-1.640;2022-11-04T06:36:47;32.55;;;30.35;;
76119;SDS011;64852;48.092;-1.640;2022-11-04T06:39:13;34.17;;;31.77;;
76119;SDS011;64852;48.092;-1.640;2022-11-04T06:41:39;32.78;;;30.38;;
76119;SDS011;64852;48.092;-1.640;2022-11-04T06:44:04;33.30;;;31.00;;
76119;SDS011;64852;48.092;-1.640;2022-11-04T06:46:38;32.08;;;29.88;;
76119;SDS011;64852;48.092;-1.640;2022-11-04T06:49:06;35.25;;;32.83;;
76119;SDS011;64852;48.092;-1.640;2022-11-04T06:51:35;33.85;;;31.45;;
76119;SDS011;64852;48.092;-1.640;2022-11-04T06:54:01;34.43;;;32.03;;
76119;SDS011;64852;48.092;-1.640;2022-11-04T06:56:27;35.90;;;32.20;;
76119;SDS011;64852;48.092;-1.640;2022-11-04T06:58:53;33.83;;;31.47;;
76119;SDS011;64852;48.092;-1.640;2022-11-04T07:01:20;35.50;;;33.10;;
76119;SDS011;64852;48.092;-1.640;2022-11-04T07:03:48;34.17;;;31.88;;
76119;SDS011;64852;48.092;-1.640;2022-11-04T07:06:19;33.20;;;31.00;;
76119;SDS011;64852;48.092;-1.640;2022-11-04T07:08:49;33.75;;;31.45;;
76119;SDS011;64852;48.092;-1.640;2022-11-04T07:11:17;33.22;;;30.90;;
76119;SDS011;64852;48.092;-1.640;2022-11-04T07:13:44;33.67;;;31.38;;
76119;SDS011;64852;48.092;-1.640;2022-11-04T07:16:09;35.40;;;33.00;;
76119;SDS011;64852;48.092;-1.640;2022-11-04T07:18:35;32.27;;;30.07;;
76119;SDS011;64852;48.092;-1.640;2022-11-04T07:21:01;38.75;;;36.30;;
76119;SDS011;64852;48.092;-1.640;2022-11-04T07:23:27;34.92;;;32.42;;
76119;SDS011;64852;48.092;-1.640;2022-11-04T07:25:53;33.93;;;31.53;;
76119;SDS011;64852;48.092;-1.640;2022-11-04T07:28:27;35.22;;;32.38;;
76119;SDS011;64852;48.092;-1.640;2022-11-04T07:30:56;36.90;;;34.10;;
76119;SDS011;64852;48.092;-1.640;2022-11-04T07:33:23;35.15;;;32.75;;
76119;SDS011;64852;48.092;-1.640;2022-11-04T07:38:15;34.45;;;32.10;;
76119;SDS011;64852;48.092;-1.640;2022-11-04T07:40:40;35.73;;;33.23;;
76119;SDS011;64852;48.092;-1.640;2022-11-04T07:43:06;34.50;;;32.10;;
76119;SDS011;64852;48.092;-1.640;2022-11-04T07:45:32;35.93;;;33.53;;
76119;SDS011;64852;48.092;-1.640;2022-11-04T07:47:57;36.30;;;33.90;;
76119;SDS011;64852;48.092;-1.640;2022-11-04T07:50:23;35.13;;;32.83;;
76119;SDS011;64852;48.092;-1.640;2022-11-04T07:52:48;39.77;;;37.17;;
76119;SDS011;64852;48.092;-1.640;2022-11-04T07:55:17;37.30;;;34.80;;
76119;SDS011;64852;48.092;-1.640;2022-11-04T07:57:44;37.78;;;33.85;;
76119;SDS011;64852;48.092;-1.640;2022-11-04T08:00:10;36.83;;;34.33;;
76119;SDS011;64852;48.092;-1.640;2022-11-04T08:02:36;35.80;;;33.50;;
76119;SDS011;64852;48.092;-1.640;2022-11-04T08:05:02;35.73;;;33.33;;
76119;SDS011;64852;48.092;-1.640;2022-11-04T08:07:30;36.95;;;34.45;;
76119;SDS011;64852;48.092;-1.640;2022-11-04T08:09:56;38.90;;;36.30;;
76119;SDS011;64852;48.092;-1.640;2022-11-04T08:12:21;37.57;;;35.07;;
76119;SDS011;64852;48.092;-1.640;2022-11-04T08:17:14;35.33;;;32.92;;
76119;SDS011;64852;48.092;-1.640;2022-11-04T08:19:39;36.67;;;34.17;;
76119;SDS011;64852;48.092;-1.640;2022-11-04T08:22:05;35.07;;;32.77;;
76119;SDS011;64852;48.092;-1.640;2022-11-04T08:24:32;37.28;;;34.75;;
76119;SDS011;64852;48.092;-1.640;2022-11-04T08:26:58;37.00;;;34.60;;
76119;SDS011;64852;48.092;-1.640;2022-11-04T08:29:23;38.90;;;36.30;;
76119;SDS011;64852;48.092;-1.640;2022-11-04T08:31:49;38.35;;;35.75;;
76119;SDS011;64852;48.092;-1.640;2022-11-04T08:34:15;38.20;;;35.70;;
76119;SDS011;64852;48.092;-1.640;2022-11-04T08:36:42;41.20;;;37.72;;
76119;SDS011;64852;48.092;-1.640;2022-11-04T08:39:09;38.72;;;36.22;;
76119;SDS011;64852;48.092;-1.640;2022-11-04T08:41:36;38.05;;;34.50;;
76119;SDS011;64852;48.092;-1.640;2022-11-04T08:44:04;36.33;;;33.92;;
76119;SDS011;64852;48.092;-1.640;2022-11-04T08:46:32;38.22;;;35.72;;
76119;SDS011;64852;48.092;-1.640;2022-11-04T08:49:00;37.80;;;35.20;;
76119;SDS011;64852;48.092;-1.640;2022-11-04T08:51:26;37.45;;;34.95;;
76119;SDS011;64852;48.092;-1.640;2022-11-04T08:56:38;37.33;;;34.95;;
76119;SDS011;64852;48.092;-1.640;2022-11-04T08:59:04;37.30;;;34.90;;
76119;SDS011;64852;48.092;-1.640;2022-11-04T09:03:57;35.67;;;33.38;;
76119;SDS011;64852;48.092;-1.640;2022-11-04T09:06:24;38.28;;;35.88;;
76119;SDS011;64852;48.092;-1.640;2022-11-04T09:08:52;38.30;;;35.80;;
76119;SDS011;64852;48.092;-1.640;2022-11-04T09:11:25;36.72;;;34.33;;
76119;SDS011;64852;48.092;-1.640;2022-11-04T09:13:51;39.83;;;37.13;;
76119;SDS011;64852;48.092;-1.640;2022-11-04T09:16:17;35.60;;;33.42;;
76119;SDS011;64852;48.092;-1.640;2022-11-04T09:18:43;34.10;;;31.98;;
76119;SDS011;64852;48.092;-1.640;2022-11-04T09:21:09;35.22;;;32.97;;
76119;SDS011;64852;48.092;-1.640;2022-11-04T09:23:35;36.72;;;34.42;;
76119;SDS011;64852;48.092;-1.640;2022-11-04T09:26:08;37.55;;;34.90;;
76119;SDS011;64852;48.092;-1.640;2022-11-04T09:28:37;33.38;;;31.38;;
76119;SDS011;64852;48.092;-1.640;2022-11-04T09:31:08;33.22;;;31.23;;
76119;SDS011;64852;48.092;-1.640;2022-11-04T09:33:36;33.53;;;31.52;;
76119;SDS011;64852;48.092;-1.640;2022-11-04T09:36:01;33.13;;;31.03;;
76119;SDS011;64852;48.092;-1.640;2022-11-04T09:38:27;34.30;;;31.25;;
76119;SDS011;64852;48.092;-1.640;2022-11-04T09:40:53;34.03;;;31.92;;
76119;SDS011;64852;48.092;-1.640;2022-11-04T09:45:59;31.80;;;29.80;;
76119;SDS011;64852;48.092;-1.640;2022-11-04T09:48:40;30.30;;;28.40;;
76119;SDS011;64852;48.092;-1.640;2022-11-04T09:51:11;31.63;;;29.73;;
76119;SDS011;64852;48.092;-1.640;2022-11-04T09:53:50;31.55;;;29.65;;
76119;SDS011;64852;48.092;-1.640;2022-11-04T09:56:22;30.15;;;27.70;;
76119;SDS011;64852;48.092;-1.640;2022-11-04T09:58:52;27.10;;;25.40;;
76119;SDS011;64852;48.092;-1.640;2022-11-04T10:14:32;24.90;;;23.50;;
76119;SDS011;64852;48.092;-1.640;2022-11-04T10:25:12;26.67;;;25.08;;
76119;SDS011;64852;48.092;-1.640;2022-11-04T10:27:41;26.25;;;24.70;;
76119;SDS011;64852;48.092;-1.640;2022-11-04T10:30:20;25.85;;;24.35;;
76119;SDS011;64852;48.092;-1.640;2022-11-04T10:35:57;23.15;;;21.15;;
76119;SDS011;64852;48.092;-1.640;2022-11-04T10:41:55;22.50;;;21.08;;
76119;SDS011;64852;48.092;-1.640;2022-11-04T10:44:03;20.80;;;19.60;;
76119;SDS011;64852;48.092;-1.640;2022-11-04T10:52:31;24.02;;;22.58;;
76119;SDS011;64852;48.092;-1.640;2022-11-04T10:54:59;23.02;;;21.52;;
76119;SDS011;64852;48.092;-1.640;2022-11-04T10:57:25;20.27;;;19.17;;
76119;SDS011;64852;48.092;-1.640;2022-11-04T11:07:42;21.70;;;20.40;;
76119;SDS011;64852;48.092;-1.640;2022-11-04T11:17:59;17.95;;;17.02;;
76119;SDS011;64852;48.092;-1.640;2022-11-04T11:20:25;17.52;;;16.30;;
76119;SDS011;64852;48.092;-1.640;2022-11-04T11:22:51;16.92;;;16.02;;
76119;SDS011;64852;48.092;-1.640;2022-11-04T11:25:28;16.17;;;15.32;;
76119;SDS011;64852;48.092;-1.640;2022-11-04T11:33:19;17.80;;;16.90;;
76119;SDS011;64852;48.092;-1.640;2022-11-04T11:36:02;17.65;;;16.75;;
76119;SDS011;64852;48.092;-1.640;2022-11-04T11:38:57;16.42;;;15.32;;
76119;SDS011;64852;48.092;-1.640;2022-11-04T11:41:27;15.30;;;14.50;;
76119;SDS011;64852;48.092;-1.640;2022-11-04T11:44:01;16.90;;;16.00;;
76119;SDS011;64852;48.092;-1.640;2022-11-04T11:46:48;14.13;;;13.23;;
76119;SDS011;64852;48.092;-1.640;2022-11-04T11:49:23;14.40;;;13.50;;
76119;SDS011;64852;48.092;-1.640;2022-11-04T11:51:52;18.17;;;14.27;;
76119;SDS011;64852;48.092;-1.640;2022-11-04T11:56:54;15.68;;;14.02;;
76119;SDS011;64852;48.092;-1.640;2022-11-04T12:02:19;14.63;;;13.75;;
76119;SDS011;64852;48.092;-1.640;2022-11-04T12:05:10;18.90;;;15.55;;
76119;SDS011;64852;48.092;-1.640;2022-11-04T12:12:58;14.13;;;13.32;;
76119;SDS011;64852;48.092;-1.640;2022-11-04T12:18:32;13.13;;;10.40;;
76119;SDS011;64852;48.092;-1.640;2022-11-04T12:21:12;11.85;;;11.25;;
76119;SDS011;64852;48.092;-1.640;2022-11-04T12:23:54;16.95;;;16.05;;
76119;SDS011;64852;48.092;-1.640;2022-11-04T12:27:31;13.13;;;12.25;;
76119;SDS011;64852;48.092;-1.640;2022-11-04T12:30:09;11.65;;;10.85;;
76119;SDS011;64852;48.092;-1.640;2022-11-04T12:41:06;7.90;;;7.50;;
76119;SDS011;64852;48.092;-1.640;2022-11-04T12:43:54;8.25;;;7.80;;
76119;SDS011;64852;48.092;-1.640;2022-11-04T12:46:46;6.82;;;6.25;;
76119;SDS011;64852;48.092;-1.640;2022-11-04T13:00:35;4.03;;;3.83;;
76119;SDS011;64852;48.092;-1.640;2022-11-04T13:03:07;4.97;;;4.55;;
76119;SDS011;64852;48.092;-1.640;2022-11-04T13:05:55;4.20;;;4.00;;
76119;SDS011;64852;48.092;-1.640;2022-11-04T13:08:37;4.15;;;3.85;;
76119;SDS011;64852;48.092;-1.640;2022-11-04T13:16:39;4.70;;;4.38;;
76119;SDS011;64852;48.092;-1.640;2022-11-04T13:19:13;4.80;;;4.35;;
76119;SDS011;64852;48.092;-1.640;2022-11-04T13:21:47;4.82;;;4.43;;
76119;SDS011;64852;48.092;-1.640;2022-11-04T13:24:21;4.23;;;4.03;;
76119;SDS011;64852;48.092;-1.640;2022-11-04T13:26:48;4.75;;;4.45;;
76119;SDS011;64852;48.092;-1.640;2022-11-04T13:29:16;3.97;;;3.72;;
76119;SDS011;64852;48.092;-1.640;2022-11-04T13:31:48;4.25;;;3.95;;
76119;SDS011;64852;48.092;-1.640;2022-11-04T13:34:21;4.10;;;3.80;;
76119;SDS011;64852;48.092;-1.640;2022-11-04T13:39:47;3.80;;;3.60;;
76119;SDS011;64852;48.092;-1.640;2022-11-04T13:45:02;4.80;;;4.50;;
76119;SDS011;64852;48.092;-1.640;2022-11-04T13:47:56;3.80;;;3.60;;
76119;SDS011;64852;48.092;-1.640;2022-11-04T13:53:02;3.53;;;3.33;;
76119;SDS011;64852;48.092;-1.640;2022-11-04T13:55:30;3.50;;;3.30;;
76119;SDS011;64852;48.092;-1.640;2022-11-04T13:57:57;8.10;;;3.85;;
76119;SDS011;64852;48.092;-1.640;2022-11-04T14:00:25;3.30;;;3.10;;
76119;SDS011;64852;48.092;-1.640;2022-11-04T14:18:48;2.65;;;2.55;;
76119;SDS011;64852;48.092;-1.640;2022-11-04T14:23:43;2.20;;;2.10;;
76119;SDS011;64852;48.092;-1.640;2022-11-04T14:26:11;3.47;;;2.90;;
76119;SDS011;64852;48.092;-1.640;2022-11-04T14:28:43;4.95;;;3.05;;
76119;SDS011;64852;48.092;-1.640;2022-11-04T14:31:14;3.53;;;3.22;;
76119;SDS011;64852;48.092;-1.640;2022-11-04T14:34:03;2.97;;;2.63;;
76119;SDS011;64852;48.092;-1.640;2022-11-04T14:36:47;2.55;;;2.45;;
76119;SDS011;64852;48.092;-1.640;2022-11-04T14:39:22;2.50;;;2.30;;
76119;SDS011;64852;48.092;-1.640;2022-11-04T14:44:33;4.35;;;2.40;;
76119;SDS011;64852;48.092;-1.640;2022-11-04T14:47:18;2.65;;;2.55;;
76119;SDS011;64852;48.092;-1.640;2022-11-04T14:52:31;2.22;;;2.13;;
76119;SDS011;64852;48.092;-1.640;2022-11-04T14:57:35;2.25;;;2.15;;
76119;SDS011;64852;48.092;-1.640;2022-11-04T15:02:47;7.32;;;2.60;;
76119;SDS011;64852;48.092;-1.640;2022-11-04T15:05:25;3.85;;;3.55;;
76119;SDS011;64852;48.092;-1.640;2022-11-04T15:07:53;2.20;;;2.10;;
76119;SDS011;64852;48.092;-1.640;2022-11-04T15:10:20;3.00;;;2.80;;
76119;SDS011;64852;48.092;-1.640;2022-11-04T15:12:49;2.70;;;2.60;;
76119;SDS011;64852;48.092;-1.640;2022-11-04T15:15:24;2.20;;;2.10;;
76119;SDS011;64852;48.092;-1.640;2022-11-04T15:17:58;2.10;;;2.00;;
76119;SDS011;64852;48.092;-1.640;2022-11-04T15:20:34;3.30;;;3.00;;
76119;SDS011;64852;48.092;-1.640;2022-11-04T15:23:03;2.45;;;2.35;;
76119;SDS011;64852;48.092;-1.640;2022-11-04T15:25:35;2.95;;;2.75;;
76119;SDS011;64852;48.092;-1.640;2022-11-04T15:28:22;6.15;;;3.03;;
76119;SDS011;64852;48.092;-1.640;2022-11-04T15:31:35;2.10;;;2.00;;
76119;SDS011;64852;48.092;-1.640;2022-11-04T15:33:47;2.10;;;2.00;;
76119;SDS011;64852;48.092;-1.640;2022-11-04T15:36:23;1.90;;;1.80;;
76119;SDS011;64852;48.092;-1.640;2022-11-04T15:38:59;2.00;;;1.90;;
76119;SDS011;64852;48.092;-1.640;2022-11-04T15:41:38;2.75;;;2.55;;
76119;SDS011;64852;48.092;-1.640;2022-11-04T15:44:28;2.33;;;2.22;;
76119;SDS011;64852;48.092;-1.640;2022-11-04T15:47:17;2.00;;;1.90;;
76119;SDS011;64852;48.092;-1.640;2022-11-04T15:49:47;2.20;;;2.10;;
76119;SDS011;64852;48.092;-1.640;2022-11-04T15:52:22;2.10;;;2.00;;
76119;SDS011;64852;48.092;-1.640;2022-11-04T15:54:53;2.60;;;2.50;;
76119;SDS011;64852;48.092;-1.640;2022-11-04T16:00:00;2.60;;;2.50;;
76119;SDS011;64852;48.092;-1.640;2022-11-04T16:02:32;2.83;;;2.72;;
76119;SDS011;64852;48.092;-1.640;2022-11-04T16:05:15;4.20;;;3.72;;
76119;SDS011;64852;48.092;-1.640;2022-11-04T16:07:50;3.10;;;2.90;;
76119;SDS011;64852;48.092;-1.640;2022-11-04T16:13:29;2.30;;;2.20;;
76119;SDS011;64852;48.092;-1.640;2022-11-04T16:20:48;2.40;;;2.30;;
76119;SDS011;64852;48.092;-1.640;2022-11-04T16:23:17;2.50;;;2.40;;
76119;SDS011;64852;48.092;-1.640;2022-11-04T16:25:46;2.20;;;2.10;;
76119;SDS011;64852;48.092;-1.640;2022-11-04T16:28:20;2.30;;;2.20;;
76119;SDS011;64852;48.092;-1.640;2022-11-04T16:30:57;3.25;;;3.05;;
76119;SDS011;64852;48.092;-1.640;2022-11-04T16:33:27;2.25;;;2.15;;
76119;SDS011;64852;48.092;-1.640;2022-11-04T16:35:52;2.87;;;2.70;;
76119;SDS011;64852;48.092;-1.640;2022-11-04T16:38:18;3.13;;;2.92;;
76119;SDS011;64852;48.092;-1.640;2022-11-04T16:40:45;2.60;;;2.50;;
76119;SDS011;64852;48.092;-1.640;2022-11-04T16:43:12;5.88;;;4.10;;
76119;SDS011;64852;48.092;-1.640;2022-11-04T16:45:40;3.20;;;3.00;;
76119;SDS011;64852;48.092;-1.640;2022-11-04T16:48:19;2.60;;;2.50;;
76119;SDS011;64852;48.092;-1.640;2022-11-04T16:50:45;2.60;;;2.50;;
76119;SDS011;64852;48.092;-1.640;2022-11-04T16:53:12;2.92;;;2.78;;
76119;SDS011;64852;48.092;-1.640;2022-11-04T16:55:38;2.73;;;2.63;;
76119;SDS011;64852;48.092;-1.640;2022-11-04T16:58:05;2.72;;;2.53;;
76119;SDS011;64852;48.092;-1.640;2022-11-04T17:00:31;2.78;;;2.67;;
76119;SDS011;64852;48.092;-1.640;2022-11-04T17:02:58;3.65;;;3.45;;
76119;SDS011;64852;48.092;-1.640;2022-11-04T17:05:25;2.97;;;2.85;;
76119;SDS011;64852;48.092;-1.640;2022-11-04T17:07:51;3.23;;;3.03;;
76119;SDS011;64852;48.092;-1.640;2022-11-04T17:10:23;3.42;;;3.22;;
76119;SDS011;64852;48.092;-1.640;2022-11-04T17:12:50;3.35;;;3.15;;
76119;SDS011;64852;48.092;-1.640;2022-11-04T17:15:16;2.60;;;2.50;;
76119;SDS011;64852;48.092;-1.640;2022-11-04T17:17:42;3.33;;;3.13;;
76119;SDS011;64852;48.092;-1.640;2022-11-04T17:20:12;3.67;;;3.10;;
76119;SDS011;64852;48.092;-1.640;2022-11-04T17:22:41;2.45;;;2.35;;
76119;SDS011;64852;48.092;-1.640;2022-11-04T17:25:14;3.40;;;2.78;;
76119;SDS011;64852;48.092;-1.640;2022-11-04T17:27:45;3.63;;;3.42;;
76119;SDS011;64852;48.092;-1.640;2022-11-04T17:30:11;3.55;;;3.35;;
76119;SDS011;64852;48.092;-1.640;2022-11-04T17:32:38;3.60;;;3.40;;
76119;SDS011;64852;48.092;-1.640;2022-11-04T17:37:30;5.40;;;4.45;;
76119;SDS011;64852;48.092;-1.640;2022-11-04T17:39:56;5.05;;;4.65;;
76119;SDS011;64852;48.092;-1.640;2022-11-04T17:42:21;4.43;;;4.13;;
76119;SDS011;64852;48.092;-1.640;2022-11-04T17:45:06;4.70;;;4.35;;
76119;SDS011;64852;48.092;-1.640;2022-11-04T17:47:35;4.20;;;4.00;;
76119;SDS011;64852;48.092;-1.640;2022-11-04T17:50:02;4.13;;;3.92;;
76119;SDS011;64852;48.092;-1.640;2022-11-04T17:52:30;4.60;;;4.30;;
76119;SDS011;64852;48.092;-1.640;2022-11-04T17:54:56;4.80;;;4.50;;
76119;SDS011;64852;48.092;-1.640;2022-11-04T17:57:21;4.53;;;4.30;;
76119;SDS011;64852;48.092;-1.640;2022-11-04T17:59:47;4.80;;;4.50;;
76119;SDS011;64852;48.092;-1.640;2022-11-04T18:02:13;4.73;;;4.43;;
76119;SDS011;64852;48.092;-1.640;2022-11-04T18:04:38;5.03;;;4.63;;